• Join FlightAware (Why Join?)
  • Login
  • US Flag 
05:46PM EDT


 

Airport Tracker/Info


-or-


 

Live Flight TrackerFlight Track Log ✈ SWA1524 ✈ 20-May-2013 ✈ KAUS - KLAX

Flight Track Log - Related Links

Times and Time Zones

All times are in EDT time to prevent confusion due to time zone crossing. See the SWA1524 flight status page for this flight to view local times or setup timezone preferences in your user account.

Time Position Orientation Groundspeed Altitude Reporting Facility
EDT Latitude Longitude Course Direction KTS MPH feet Rate Location/Type
06:37PM 30.1942 -97.8783 286° West 278 320 8,800  Level Houston Center
06:38PM 30.2169 -97.9789 285° West 299 344 11,000 2,040 Climbing Houston Center
06:39PM 30.2408 -98.0908 284° West 353 406 13,100 2,580 Climbing Houston Center
06:40PM 30.4113 -97.8571 276° West  Level FlightAware Approximate
06:40PM 30.2661 -98.2089 284° West 375 432 16,400  Level Houston Center
06:41PM 30.4167 -97.9781 270° West  Level FlightAware Approximate
06:41PM 30.2922 -98.3322 284° West 370 426 19,800  Level Houston Center
06:42PM 30.3158 -98.4486 283° West 380 437 22,000 2,040 Climbing Houston Center
06:43PM 30.3428 -98.5753 284° West 396 456 24,100 1,920 Climbing Houston Center
06:44PM 30.3697 -98.7056 284° West 409 471 26,000 1,740 Climbing Houston Center
06:45PM 30.3975 -98.8383 284° West 420 483 27,700 1,800 Climbing Houston Center
06:46PM 30.4261 -98.9750 284° West 429 494 29,800 2,280 Climbing Houston Center
06:47PM 30.4581 -99.1261 284° West 410 472 32,500 1,920 Climbing Houston Center
06:48PM 30.4797 -99.2306 284° West 400 460 33,800 1,440 Climbing Houston Center
06:50PM 30.5106 -99.3806 283° West 399 459 35,500 1,380 Climbing Houston Center
06:51PM 30.5358 -99.5058 283° West 401 461 36,700 1,080 Climbing Houston Center
06:52PM 30.5603 -99.6297 283° West 397 457 37,800 600 Climbing Houston Center
06:53PM 30.5853 -99.7519 283° West 391 450 38,000 60 Climbing Houston Center
06:54PM 30.6053 -99.8761 281° West 397 457 38,000  Level Houston Center
06:55PM 30.6233 -100.0269 278° West 394 453 38,000  Level Houston Center
06:56PM 30.6392 -100.1528 278° West 396 456 38,000  Level Houston Center
06:57PM 30.6553 -100.2783 279° West 395 455 38,000  Level Houston Center
06:58PM 30.6708 -100.4067 278° West 402 463 38,000  Level Houston Center
06:59PM 30.6850 -100.5308 278° West 395 455 38,000  Level Houston Center
07:00PM 30.7033 -100.6781 278° West 388 447 38,000  Level Houston Center
07:01PM 30.7169 -100.8003 277° West 384 442 38,000  Level Houston Center
07:02PM 30.7317 -100.9222 278° West 384 442 38,000  Level Houston Center
07:03PM 30.7439 -101.0450 277° West 384 442 38,000  Level Houston Center
07:04PM 30.7597 -101.1681 279° West 386 444 38,000  Level Houston Center
07:05PM 30.7772 -101.3147 278° West 385 443 38,000 -60 Level Houston Center
07:06PM 30.7903 -101.4414 277° West 393 452 37,900  Descending Houston Center
07:07PM 30.8017 -101.5650 276° West 390 449 38,000  Climbing Houston Center
07:08PM 30.8161 -101.6911 278° West 386 444 38,000  Level Houston Center
07:09PM 30.8297 -101.8156 277° West 390 449 38,000  Level Houston Center
07:10PM 30.8428 -101.9386 277° West 386 444 38,000  Level Houston Center
07:11PM 30.8567 -102.0619 278° West 384 442 38,000  Level Houston Center
07:12PM 30.8722 -102.2114 277° West 385 443 38,000  Level Houston Center
07:13PM 30.8858 -102.3386 277° West 392 451 38,000  Level Houston Center
07:14PM 30.8961 -102.4383 277° West 393 452 38,000  Level Albuquerque Center
07:15PM 30.9092 -102.5650 277° West 392 451 38,000  Level Albuquerque Center
07:16PM 30.9219 -102.6903 277° West 390 449 38,000  Level Albuquerque Center
07:17PM 30.9372 -102.8403 277° West 389 448 38,000  Level Albuquerque Center
07:18PM 30.9500 -102.9664 277° West 390 449 38,000  Level Albuquerque Center
07:19PM 30.9811 -103.0867 287° West 385 443 38,000  Level Albuquerque Center
07:20PM 31.0150 -103.2078 288° West 392 451 38,000  Level Albuquerque Center
07:21PM 31.0500 -103.3292 289° West 393 452 38,000  Level Albuquerque Center
07:22PM 31.0817 -103.4483 287° West 388 447 38,000  Level Albuquerque Center
07:23PM 31.1131 -103.5664 287° West 383 441 38,000  Level Albuquerque Center
07:24PM 31.1431 -103.6819 287° West 376 433 38,000  Level Albuquerque Center
07:26PM 31.1767 -103.8044 288° West 376 433 38,000  Level Albuquerque Center
07:27PM 31.2086 -103.9231 288° West 381 438 38,000  Level Albuquerque Center
07:28PM 31.2411 -104.0419 288° West 384 442 38,000  Level Albuquerque Center
07:29PM 31.2728 -104.1592 288° West 381 438 38,000  Level Albuquerque Center
07:30PM 31.3094 -104.3025 287° West 384 442 38,000  Level Albuquerque Center
07:31PM 31.3417 -104.4233 287° West 389 448 38,000  Level Albuquerque Center
07:32PM 31.3744 -104.5428 288° West 389 448 38,000  Level Albuquerque Center
07:33PM 31.4047 -104.6631 286° West 388 447 38,000  Level Albuquerque Center
07:34PM 31.4369 -104.7844 287° West 391 450 38,000 -60 Level Albuquerque Center
07:35PM 31.4686 -104.9064 287° West 393 452 37,900  Descending Albuquerque Center
07:36PM 31.5000 -105.0289 287° West 395 455 38,000  Climbing Albuquerque Center
07:37PM 31.5311 -105.1506 287° West 394 453 38,000  Level Albuquerque Center
07:38PM 31.5689 -105.2958 287° West 393 452 38,000  Level Albuquerque Center
07:39PM 31.5989 -105.4172 286° West 391 450 38,000  Level Albuquerque Center
07:40PM 31.6297 -105.5392 287° West 392 451 38,000  Level Albuquerque Center
07:41PM 31.6603 -105.6586 287° West 387 445 38,000  Level Albuquerque Center
07:42PM 31.6908 -105.7803 286° West 388 447 38,000  Level Albuquerque Center
07:43PM 31.7211 -105.9014 286° West 387 445 38,000  Level Albuquerque Center
07:44PM 31.7514 -106.0225 286° West 388 447 38,000  Level Albuquerque Center
07:45PM 31.7817 -106.1425 287° West 386 444 38,000  Level Albuquerque Center
07:46PM 31.8192 -106.2886 287° West 389 448 38,000  Level Albuquerque Center
07:47PM 31.8275 -106.4189 274° West 396 456 38,000  Level Albuquerque Center
07:48PM 31.8375 -106.5447 275° West 392 451 38,000  Level Albuquerque Center
07:49PM 31.8467 -106.6817 275° West 391 450 38,000  Level Albuquerque Center
07:50PM 31.8564 -106.8083 275° West 389 448 38,000  Level Albuquerque Center
07:51PM 31.8661 -106.9356 275° West 389 448 38,000  Level Albuquerque Center
07:52PM 31.8744 -107.0639 274° West 392 451 38,000  Level Albuquerque Center
07:53PM 31.8861 -107.1897 276° West 388 447 38,000  Level Albuquerque Center
07:54PM 31.9228 -107.3083 290° West 382 440 38,000  Level Albuquerque Center
07:55PM 31.9592 -107.4314 289° West 392 451 38,000  Level Albuquerque Center
07:56PM 31.9958 -107.5531 290° West 393 452 38,000  Level Albuquerque Center
07:57PM 32.0322 -107.6742 290° West 392 451 38,000  Level Albuquerque Center
07:58PM 32.0681 -107.7975 289° West 395 455 38,000  Level Albuquerque Center
07:59PM 32.1044 -107.9206 289° West 396 456 38,000  Level Albuquerque Center
08:00PM 32.1483 -108.0694 289° West 399 459 38,000  Level Albuquerque Center
08:01PM 32.1853 -108.1939 289° West 400 460 38,000  Level Albuquerque Center
08:02PM 32.2225 -108.3192 289° West 403 464 38,000  Level Albuquerque Center
08:03PM 32.2611 -108.4503 289° West 402 463 38,000  Level Albuquerque Center
08:04PM 32.2969 -108.5739 289° West 401 461 38,000  Level Albuquerque Center
08:05PM 32.3325 -108.6981 289° West 401 461 38,000  Level Albuquerque Center
08:06PM 32.3697 -108.8219 290° West 401 461 38,000  Level Albuquerque Center
08:07PM 32.4047 -108.9464 288° West 400 460 38,000  Level Albuquerque Center
08:08PM 32.4419 -109.0711 290° West 402 463 38,000  Level Albuquerque Center
08:09PM 32.4842 -109.2203 289° West 401 461 38,000  Level Albuquerque Center
08:11PM 32.5203 -109.3433 289° West 398 458 38,000  Level Albuquerque Center
08:12PM 32.5544 -109.4656 288° West 395 455 38,000  Level Albuquerque Center
08:13PM 32.5900 -109.5867 289° West 393 452 38,000  Level Albuquerque Center
08:14PM 32.6239 -109.7075 288° West 390 449 38,000  Level Albuquerque Center
08:15PM 32.6578 -109.8294 288° West 390 449 38,000  Level Albuquerque Center
08:16PM 32.6997 -109.9783 289° West 394 453 38,000  Level Albuquerque Center
08:17PM 32.7344 -110.1028 288° West 397 457 38,000  Level Albuquerque Center
08:18PM 32.7719 -110.2261 290° West 398 458 38,000  Level Albuquerque Center
08:19PM 32.8058 -110.3511 288° West 399 459 38,000  Level Albuquerque Center
08:20PM 32.8406 -110.4769 288° West 401 461 38,000  Level Albuquerque Center
08:21PM 32.8747 -110.6017 288° West 401 461 38,000  Level Albuquerque Center
08:22PM 32.9106 -110.7328 288° West 402 463 38,000  Level Albuquerque Center
08:23PM 32.9447 -110.8611 288° West 405 466 38,000  Level Albuquerque Center
08:24PM 32.9792 -110.9886 288° West 406 467 38,000  Level Albuquerque Center
08:25PM 33.0203 -111.1444 288° West 410 472 38,000  Level Albuquerque Center
08:26PM 33.0539 -111.2742 287° West 411 473 38,000  Level Albuquerque Center
08:27PM 33.0883 -111.4025 288° West 408 470 38,000  Level Albuquerque Center
08:28PM 33.1214 -111.5319 287° West 406 467 38,000  Level Albuquerque Center
08:29PM 33.1558 -111.6608 288° West 407 468 38,000  Level Albuquerque Center
08:30PM 33.1894 -111.7906 287° West 409 471 38,000  Level Albuquerque Center
08:31PM 33.2233 -111.9178 288° West 405 466 38,000  Level Albuquerque Center
08:32PM 33.2558 -112.0444 287° West 400 460 38,000  Level Albuquerque Center
08:33PM 33.2878 -112.1700 287° West 396 456 38,000  Level Albuquerque Center
08:34PM 33.3194 -112.2961 287° West 395 455 38,000  Level Albuquerque Center
08:35PM 33.3581 -112.4461 287° West 393 452 38,000  Level Albuquerque Center
08:36PM 33.3894 -112.5703 287° West 390 449 38,000  Level Albuquerque Center
08:37PM 33.4222 -112.7008 287° West 390 449 38,000  Level Albuquerque Center
08:38PM 33.4533 -112.8231 287° West 388 447 38,000  Level Albuquerque Center
08:39PM 33.4944 -112.9389 293° West 382 440 38,000  Level Albuquerque Center
08:40PM 33.5372 -113.0569 294° West 386 444 38,000  Level Albuquerque Center
08:41PM 33.5789 -113.1764 293° West 389 448 38,000  Level Albuquerque Center
08:42PM 33.6219 -113.2944 294° West 388 447 38,000  Level Albuquerque Center
08:43PM 33.6628 -113.4117 293° West 389 448 38,000  Level Albuquerque Center
08:44PM 33.7133 -113.5567 293° West 391 450 38,000  Level Albuquerque Center
08:45PM 33.7553 -113.6775 293° West 392 451 38,000  Level Albuquerque Center
08:46PM 33.7972 -113.7983 293° West 392 451 38,000  Level Albuquerque Center
08:47PM 33.8411 -113.9197 294° West 394 453 38,000  Level Albuquerque Center
08:48PM 33.8808 -114.0414 291° West 393 452 38,000 -360 Level Albuquerque Center
08:50PM 33.9219 -114.2100 286° West 402 463 37,300 -780 Descending Los Angeles Center
08:51PM 33.9394 -114.3411 279° West 400 460 36,300 -660 Descending Los Angeles Center
08:52PM 33.9553 -114.4731 278° West 400 460 36,000 -180 Descending Los Angeles Center
08:53PM 33.9733 -114.6047 279° West 400 460 36,000 -480 Level Los Angeles Center
08:54PM 33.9922 -114.7633 278° West 400 460 35,100 -960 Descending Los Angeles Center
08:55PM 34.0086 -114.8939 279° West 397 457 34,100 -960 Descending Los Angeles Center
08:56PM 34.0261 -115.0311 279° West 410 472 33,200 -900 Descending Los Angeles Center
08:57PM 34.0422 -115.1711 278° West 420 483 32,300 -960 Descending Los Angeles Center
08:58PM 34.0586 -115.3094 278° West 419 482 31,300 -960 Descending Los Angeles Center
08:59PM 34.0758 -115.4486 279° West 421 484 30,400 -1,080 Descending Los Angeles Center
09:00PM 34.0944 -115.6164 278° West 422 486 29,200 -1,080 Descending Los Angeles Center
09:01PM 34.1106 -115.7550 278° West 422 486 28,200 -1,020 Descending Los Angeles Center
09:02PM 34.0939 -115.8933 262° West 418 481 27,200 -1,020 Descending Los Angeles Center
09:03PM 34.0733 -116.0306 260° West 420 483 26,200 -1,020 Descending Los Angeles Center
09:04PM 34.0536 -116.1653 260° West 412 474 25,200 -1,020 Descending Los Angeles Center
09:05PM 34.0328 -116.3008 260° West 413 475 24,200 -1,020 Descending Los Angeles Center
09:06PM 34.0133 -116.4333 260° West 406 467 23,200 -1,080 Descending Los Angeles Center
09:07PM 33.9961 -116.5919 263° West 400 460 22,000 -1,080 Descending Los Angeles Center
09:08PM 33.9875 -116.7219 265° West 394 453 21,000 -1,020 Descending Los Angeles Center
09:09PM 33.9767 -116.8492 264° West 387 445 20,000 -960 Descending Los Angeles Center
09:10PM 33.9667 -116.9333 262° West 374 430 19,400 -1,740 Descending Southern California TRACON
09:11PM 33.9667 -117.0667 270° West 367 422 17,200 -1,260 Descending Southern California TRACON
09:12PM 33.9500 -117.1833 260° West 352 405 16,900 -840 Descending Southern California TRACON
09:13PM 33.9333 -117.3000 260° West 344 396 15,600 -1,680 Descending Southern California TRACON
09:14PM 33.9500 -117.4000 281° West 336 387 13,600 -2,040 Descending Southern California TRACON
09:15PM 33.9833 -117.5167 289° West 323 372 11,500 -1,680 Descending Southern California TRACON
09:16PM 34.0000 -117.5833 287° West 302 348 10,500 -900 Descending Southern California TRACON
09:17PM 34.0000 -117.7000 270° West 290 334 9,800 -960 Descending Southern California TRACON
09:18PM 34.0000 -117.7833 270° West 278 320 8,600 -1,260 Descending Southern California TRACON
09:19PM 33.9833 -117.8833 259° West 276 318 7,300 -1,200 Descending Southern California TRACON
09:20PM 33.9833 -117.9667 270° West 268 308 6,300 -960 Descending Southern California TRACON
09:21PM 34.0000 -118.0500 284° West 249 287 5,400 -840 Descending Southern California TRACON
09:22PM 33.9833 -118.1333 256° West 228 262 4,600 -840 Descending Southern California TRACON
09:23PM 33.9775 -118.1717 260° West 229 264 3,900 -1,020 Descending Los Angeles Center
09:24PM 33.9667 -118.2608 262° West 228 262 2,900 -1,260 Descending Los Angeles Center
09:25PM 33.9606 -118.3314 264° West 222 255 1,400 -1,200 Descending Los Angeles Center
09:26PM 33.9547 -118.3861 263° West 186 214 500 -600 Descending Los Angeles Center
09:27PM 33.9500 -118.4297 263° West 172 198 200 -300 Descending Los Angeles Center